createdAt,value
2018-11-13T00:00:14.965Z,101362.00
2018-11-13T00:02:42.991Z,101359.00
2018-11-13T00:05:11.067Z,101359.00
2018-11-13T00:07:39.119Z,101372.00
2018-11-13T00:10:08.224Z,101374.00
2018-11-13T00:12:36.144Z,101382.00
2018-11-13T00:15:04.300Z,101385.00
2018-11-13T00:17:32.269Z,101390.00
2018-11-13T00:20:00.223Z,101394.00
2018-11-13T00:22:28.307Z,101396.00
2018-11-13T00:24:56.232Z,101399.00
2018-11-13T00:27:24.184Z,101398.00
2018-11-13T00:29:52.151Z,101393.00
2018-11-13T00:32:20.079Z,101398.00
2018-11-13T00:34:48.024Z,101395.00
2018-11-13T00:37:15.963Z,101395.00
2018-11-13T00:39:43.896Z,101405.00
2018-11-13T00:42:11.895Z,101418.00
2018-11-13T00:44:39.827Z,101417.00
2018-11-13T00:47:07.739Z,101412.00
2018-11-13T00:49:35.668Z,101398.00
2018-11-13T00:52:03.576Z,101387.00
2018-11-13T00:54:31.528Z,101380.00
2018-11-13T00:56:59.445Z,101370.00
2018-11-13T00:59:27.424Z,101372.00
2018-11-13T01:01:55.295Z,101370.00
2018-11-13T01:04:23.207Z,101366.00
2018-11-13T01:06:51.152Z,101374.00
2018-11-13T01:09:19.081Z,101377.00
2018-11-13T01:11:47.067Z,101374.00
2018-11-13T01:14:14.924Z,101366.00
2018-11-13T01:16:42.859Z,101369.00
2018-11-13T01:19:10.764Z,101364.00
2018-11-13T01:21:38.691Z,101371.00
2018-11-13T01:24:06.716Z,101375.00
2018-11-13T01:26:34.674Z,101378.00
2018-11-13T01:29:02.583Z,101385.00
2018-11-13T01:31:30.498Z,101400.00
2018-11-13T01:33:58.466Z,101390.00
2018-11-13T01:36:26.403Z,101394.00
2018-11-13T01:38:54.355Z,101387.00
2018-11-13T01:41:22.268Z,101397.00
2018-11-13T01:43:50.201Z,101398.00
2018-11-13T01:46:18.151Z,101402.00
2018-11-13T01:48:46.059Z,101421.00
2018-11-13T01:51:13.993Z,101433.00
2018-11-13T01:53:41.923Z,101437.00
2018-11-13T01:56:09.868Z,101430.00
2018-11-13T01:58:37.808Z,101420.00
2018-11-13T02:01:05.775Z,101419.00
2018-11-13T02:03:33.743Z,101419.00
2018-11-13T02:06:01.688Z,101414.00
2018-11-13T02:08:29.644Z,101414.00
2018-11-13T02:10:57.603Z,101417.00
2018-11-13T02:13:25.558Z,101415.00
2018-11-13T02:15:53.491Z,101421.00
2018-11-13T02:18:21.471Z,101428.00
2018-11-13T02:20:49.432Z,101430.00
2018-11-13T02:23:17.423Z,101430.00
2018-11-13T02:25:45.391Z,101426.00
2018-11-13T02:28:13.363Z,101435.00
2018-11-13T02:30:41.332Z,101432.00
2018-11-13T02:33:09.296Z,101435.00
2018-11-13T02:35:37.378Z,101432.00
2018-11-13T02:38:05.276Z,101428.00
2018-11-13T02:40:33.303Z,101439.00
2018-11-13T02:43:01.252Z,101429.00
2018-11-13T02:45:29.258Z,101422.00
2018-11-13T02:47:57.228Z,101415.00
2018-11-13T02:50:25.179Z,101413.00
2018-11-13T02:52:53.129Z,101413.00
2018-11-13T02:55:21.079Z,101412.00
2018-11-13T02:57:49.042Z,101413.00
2018-11-13T03:00:18.478Z,101410.00
2018-11-13T03:02:46.418Z,101412.00
2018-11-13T03:05:15.552Z,101414.00
2018-11-13T03:07:43.486Z,101421.00
2018-11-13T03:10:12.908Z,101427.00
2018-11-13T03:12:40.865Z,101437.00
2018-11-13T03:15:10.448Z,101460.00
2018-11-13T03:17:38.451Z,101470.00
2018-11-13T03:20:08.672Z,101466.00
2018-11-13T03:22:36.618Z,101473.00
2018-11-13T03:25:06.099Z,101484.00
2018-11-13T03:27:34.043Z,101500.00
2018-11-13T03:30:02.013Z,101509.00
2018-11-13T03:32:29.955Z,101518.00
2018-11-13T03:34:57.923Z,101513.00
2018-11-13T03:37:25.944Z,101515.00
2018-11-13T03:39:53.888Z,101509.00
2018-11-13T03:42:21.863Z,101514.00
2018-11-13T03:44:49.776Z,101500.00
2018-11-13T03:47:17.691Z,101496.00
2018-11-13T03:49:45.652Z,101496.00
2018-11-13T03:52:13.573Z,101482.00
2018-11-13T03:54:41.504Z,101484.00
2018-11-13T03:57:09.416Z,101481.00
2018-11-13T03:59:37.363Z,101494.00
2018-11-13T04:02:05.301Z,101494.00
2018-11-13T04:04:33.215Z,101495.00
2018-11-13T04:07:01.164Z,101499.00
2018-11-13T04:09:29.083Z,101493.00
2018-11-13T04:11:56.995Z,101494.00
2018-11-13T04:14:24.935Z,101501.00
2018-11-13T04:16:52.855Z,101491.00
2018-11-13T04:19:20.785Z,101492.00
2018-11-13T04:21:59.715Z,101479.00
2018-11-13T04:24:27.643Z,101471.00
2018-11-13T04:26:55.607Z,101480.00
2018-11-13T04:29:23.488Z,101474.00
2018-11-13T04:31:51.416Z,101470.00
2018-11-13T04:34:19.376Z,101486.00
2018-11-13T04:36:47.316Z,101484.00
2018-11-13T04:39:15.231Z,101487.00
2018-11-13T04:41:43.171Z,101508.00
2018-11-13T04:44:11.088Z,101509.00
2018-11-13T04:46:39.016Z,101509.00
2018-11-13T04:49:06.979Z,101509.00
2018-11-13T04:51:34.915Z,101517.00
2018-11-13T04:54:02.837Z,101519.00
2018-11-13T04:56:30.774Z,101520.00
2018-11-13T04:58:58.731Z,101519.00
2018-11-13T05:01:26.671Z,101527.00
2018-11-13T05:03:54.579Z,101523.00
2018-11-13T05:06:22.516Z,101523.00
2018-11-13T05:08:50.441Z,101535.00
2018-11-13T05:11:18.384Z,101532.00
2018-11-13T05:13:46.298Z,101531.00
2018-11-13T05:16:14.229Z,101525.00
2018-11-13T05:18:42.135Z,101516.00
2018-11-13T05:21:10.129Z,101520.00
2018-11-13T05:23:38.036Z,101527.00
2018-11-13T05:26:05.976Z,101538.00
2018-11-13T05:28:33.892Z,101540.00
2018-11-13T05:31:01.857Z,101551.00
2018-11-13T05:33:29.771Z,101564.00
2018-11-13T05:35:57.719Z,101567.00
2018-11-13T05:38:25.672Z,101552.00
2018-11-13T05:40:53.594Z,101551.00
2018-11-13T05:43:21.539Z,101546.00
2018-11-13T05:45:49.484Z,101561.00
2018-11-13T05:48:17.409Z,101569.00
2018-11-13T05:50:45.323Z,101572.00
2018-11-13T05:53:13.248Z,101572.00
2018-11-13T05:55:41.175Z,101577.00
2018-11-13T05:58:09.114Z,101561.00
2018-11-13T06:00:37.047Z,101567.00
2018-11-13T06:03:05.118Z,101587.00
2018-11-13T06:05:33.459Z,101578.00
2018-11-13T06:08:01.526Z,101583.00
2018-11-13T06:10:29.467Z,101581.00
2018-11-13T06:12:57.388Z,101586.00
2018-11-13T06:15:25.327Z,101599.00
2018-11-13T06:17:53.252Z,101609.00
2018-11-13T06:20:21.176Z,101595.00
2018-11-13T06:22:49.154Z,101601.00
2018-11-13T06:25:17.737Z,101603.00
2018-11-13T06:27:46.840Z,101603.00
2018-11-13T06:30:17.261Z,101600.00
2018-11-13T06:32:45.744Z,101609.00
2018-11-13T06:35:13.667Z,101614.00
2018-11-13T06:37:41.632Z,101614.00
2018-11-13T06:40:10.156Z,101626.00
2018-11-13T06:42:38.507Z,101638.00
2018-11-13T06:45:08.295Z,101640.00
2018-11-13T06:47:36.239Z,101643.00
2018-11-13T06:50:04.221Z,101643.00
2018-11-13T06:52:32.132Z,101647.00
2018-11-13T06:55:04.215Z,101640.00
2018-11-13T06:57:32.674Z,101645.00
2018-11-13T07:00:01.175Z,101646.00
2018-11-13T07:02:29.147Z,101653.00
2018-11-13T07:04:57.180Z,101656.00
2018-11-13T07:07:25.119Z,101657.00
2018-11-13T07:09:53.061Z,101669.00
2018-11-13T07:12:21.029Z,101677.00
2018-11-13T07:14:49.083Z,101688.00
2018-11-13T07:17:17.239Z,101687.00
2018-11-13T07:19:45.218Z,101689.00
2018-11-13T07:22:13.136Z,101692.00
2018-11-13T07:24:41.073Z,101690.00
2018-11-13T07:27:09.008Z,101691.00
2018-11-13T07:29:36.931Z,101687.00
2018-11-13T07:32:05.114Z,101695.00
2018-11-13T07:34:33.167Z,101704.00
2018-11-13T07:37:01.015Z,101717.00
2018-11-13T07:39:28.937Z,101720.00
2018-11-13T07:41:56.852Z,101724.00
2018-11-13T07:44:24.828Z,101728.00
2018-11-13T07:46:52.762Z,101743.00
2018-11-13T07:49:20.655Z,101744.00
2018-11-13T07:51:48.596Z,101736.00
2018-11-13T07:54:16.520Z,101741.00
2018-11-13T07:56:44.436Z,101745.00
2018-11-13T07:59:12.431Z,101749.00
2018-11-13T08:01:40.380Z,101743.00
2018-11-13T08:04:08.303Z,101741.00
2018-11-13T08:06:36.289Z,101738.00
2018-11-13T08:09:05.989Z,101738.00
2018-11-13T08:11:34.047Z,101740.00
2018-11-13T08:14:02.302Z,101729.00
2018-11-13T08:16:30.277Z,101734.00
2018-11-13T08:18:58.203Z,101736.00
2018-11-13T08:21:26.079Z,101752.00
2018-11-13T08:23:54.245Z,101765.00
2018-11-13T08:26:22.231Z,101780.00
2018-11-13T08:28:50.155Z,101781.00
2018-11-13T08:31:18.046Z,101787.00
2018-11-13T08:33:45.944Z,101787.00
2018-11-13T08:36:13.851Z,101792.00
2018-11-13T08:38:41.747Z,101793.00
2018-11-13T08:41:09.834Z,101793.00
2018-11-13T08:43:37.758Z,101793.00
2018-11-13T08:46:05.830Z,101794.00
2018-11-13T08:48:34.124Z,101798.00
2018-11-13T08:51:02.099Z,101799.00
2018-11-13T08:53:30.051Z,101799.00
2018-11-13T08:55:57.987Z,101807.00
2018-11-13T08:58:25.925Z,101805.00
2018-11-13T09:00:53.914Z,101806.00
2018-11-13T09:03:21.833Z,101824.00
2018-11-13T09:05:49.755Z,101823.00
2018-11-13T09:08:17.748Z,101812.00
2018-11-13T09:10:45.679Z,101819.00
2018-11-13T09:13:13.588Z,101820.00
2018-11-13T09:15:41.535Z,101831.00
2018-11-13T09:18:09.500Z,101825.00
2018-11-13T09:20:37.422Z,101825.00
2018-11-13T09:23:05.345Z,101822.00
2018-11-13T09:25:33.339Z,101828.00
2018-11-13T09:28:01.248Z,101831.00
2018-11-13T09:30:29.510Z,101825.00
2018-11-13T09:32:57.178Z,101832.00
2018-11-13T09:35:25.080Z,101830.00
2018-11-13T09:37:52.987Z,101829.00
2018-11-13T09:40:21.459Z,101826.00
2018-11-13T09:42:50.747Z,101820.00
2018-11-13T09:45:18.958Z,101811.00
2018-11-13T09:47:46.863Z,101811.00
2018-11-13T09:50:16.195Z,101818.00
2018-11-13T09:52:45.497Z,101831.00
2018-11-13T09:55:14.780Z,101824.00
2018-11-13T09:57:43.321Z,101825.00
2018-11-13T10:00:19.404Z,101832.00
2018-11-13T10:02:48.977Z,101830.00
2018-11-13T10:05:17.603Z,101829.00
2018-11-13T10:07:46.004Z,101820.00
2018-11-13T10:10:14.001Z,101825.00
2018-11-13T10:12:41.901Z,101830.00
2018-11-13T10:15:13.383Z,101836.00
2018-11-13T10:17:41.379Z,101834.00
2018-11-13T10:20:10.776Z,101842.00
2018-11-13T10:22:38.786Z,101842.00
2018-11-13T10:25:07.608Z,101853.00
2018-11-13T10:27:35.647Z,101853.00
2018-11-13T10:30:03.912Z,101846.00
2018-11-13T10:32:31.864Z,101850.00
2018-11-13T10:34:59.832Z,101840.00
2018-11-13T10:37:27.772Z,101843.00
2018-11-13T10:39:55.825Z,101846.00
2018-11-13T10:42:23.747Z,101862.00
2018-11-13T10:44:51.692Z,101861.00
2018-11-13T10:47:19.660Z,101863.00
2018-11-13T10:49:47.620Z,101860.00
2018-11-13T10:52:15.588Z,101865.00
2018-11-13T10:54:43.538Z,101855.00
2018-11-13T10:57:11.448Z,101868.00
2018-11-13T10:59:39.428Z,101872.00
2018-11-13T11:02:12.541Z,101874.00
2018-11-13T11:04:41.241Z,101880.00
2018-11-13T11:07:09.225Z,101877.00
2018-11-13T11:09:37.538Z,101880.00
2018-11-13T11:12:06.047Z,101881.00
2018-11-13T11:14:33.979Z,101875.00
2018-11-13T11:17:02.132Z,101884.00
2018-11-13T11:19:30.991Z,101888.00
2018-11-13T11:21:58.937Z,101892.00
2018-11-13T11:24:26.960Z,101881.00
2018-11-13T11:26:55.012Z,101881.00
2018-11-13T11:29:23.006Z,101880.00
2018-11-13T11:31:50.927Z,101869.00
2018-11-13T11:34:18.840Z,101871.00
2018-11-13T11:36:46.818Z,101872.00
2018-11-13T11:39:14.810Z,101868.00
2018-11-13T11:41:42.741Z,101866.00
2018-11-13T11:44:10.862Z,101865.00
2018-11-13T11:46:39.287Z,101867.00
2018-11-13T11:49:07.223Z,101871.00
2018-11-13T11:51:36.161Z,101872.00
2018-11-13T11:54:05.212Z,101884.00
2018-11-13T11:56:33.223Z,101887.00
2018-11-13T11:59:01.403Z,101888.00
2018-11-13T12:01:29.469Z,101889.00
2018-11-13T12:03:57.371Z,101888.00
2018-11-13T12:06:25.341Z,101889.00
2018-11-13T12:08:54.155Z,101888.00
2018-11-13T12:11:22.089Z,101877.00
2018-11-13T12:13:50.003Z,101872.00
2018-11-13T12:16:18.044Z,101882.00
2018-11-13T12:18:46.039Z,101875.00
2018-11-13T12:21:14.052Z,101883.00
2018-11-13T12:23:42.661Z,101878.00
2018-11-13T12:26:10.571Z,101875.00
2018-11-13T12:28:38.508Z,101880.00
2018-11-13T12:31:06.552Z,101883.00
2018-11-13T12:33:34.524Z,101876.00
2018-11-13T12:36:02.679Z,101880.00
2018-11-13T12:38:30.671Z,101882.00
2018-11-13T12:40:58.654Z,101891.00
2018-11-13T12:43:26.607Z,101890.00
2018-11-13T12:45:54.535Z,101895.00
2018-11-13T12:48:22.564Z,101897.00
2018-11-13T12:50:55.880Z,101897.00
2018-11-13T12:53:23.835Z,101898.00
2018-11-13T12:55:51.878Z,101896.00
2018-11-13T12:58:19.695Z,101905.00
2018-11-13T13:00:47.744Z,101905.00
2018-11-13T13:03:15.737Z,101901.00
2018-11-13T13:05:43.683Z,101907.00
2018-11-13T13:08:11.600Z,101913.00
2018-11-13T13:10:39.567Z,101918.00
2018-11-13T13:13:07.507Z,101907.00
2018-11-13T13:15:35.420Z,101913.00
2018-11-13T13:18:03.387Z,101912.00
2018-11-13T13:20:31.308Z,101913.00
2018-11-13T13:22:59.253Z,101916.00
2018-11-13T13:25:27.179Z,101927.00
2018-11-13T13:27:55.303Z,101932.00
2018-11-13T13:30:24.424Z,101930.00
2018-11-13T13:32:52.524Z,101923.00
2018-11-13T13:35:39.671Z,101929.00
2018-11-13T13:38:08.451Z,101929.00
2018-11-13T13:40:37.215Z,101932.00
2018-11-13T13:43:05.536Z,101936.00
2018-11-13T13:45:33.676Z,101939.00
2018-11-13T13:48:01.648Z,101944.00
2018-11-13T13:50:29.568Z,101949.00
2018-11-13T13:52:57.570Z,101955.00
2018-11-13T13:55:27.122Z,101956.00
2018-11-13T13:57:55.244Z,101964.00
2018-11-13T14:00:23.304Z,101965.00
2018-11-13T14:02:52.001Z,101979.00
2018-11-13T14:05:20.595Z,101971.00
2018-11-13T14:07:48.568Z,101978.00
2018-11-13T14:10:16.596Z,101984.00
2018-11-13T14:12:44.584Z,101990.00
2018-11-13T14:15:13.467Z,101995.00
2018-11-13T14:17:41.789Z,101994.00
2018-11-13T14:20:14.845Z,101994.00
2018-11-13T14:22:42.850Z,102001.00
2018-11-13T14:25:11.608Z,102006.00
2018-11-13T14:27:39.899Z,102004.00
2018-11-13T14:30:15.836Z,102006.00
2018-11-13T14:32:44.430Z,102012.00
2018-11-13T14:35:12.376Z,102016.00
2018-11-13T14:37:40.334Z,102021.00
2018-11-13T14:40:13.431Z,102030.00
2018-11-13T14:42:41.415Z,102039.00
2018-11-13T14:45:09.756Z,102033.00
2018-11-13T14:47:37.732Z,102040.00
2018-11-13T14:50:08.300Z,102040.00
2018-11-13T14:52:36.216Z,102046.00
2018-11-13T14:55:04.316Z,102057.00
2018-11-13T14:57:32.279Z,102064.00
2018-11-13T15:00:00.204Z,102061.00
2018-11-13T15:02:28.137Z,102068.00
2018-11-13T15:04:56.078Z,102070.00
2018-11-13T15:07:24.039Z,102075.00
2018-11-13T15:09:51.996Z,102074.00
2018-11-13T15:12:19.915Z,102079.00
2018-11-13T15:14:47.900Z,102082.00
2018-11-13T15:17:15.808Z,102088.00
2018-11-13T15:19:44.313Z,102104.00
2018-11-13T15:22:12.285Z,102103.00
2018-11-13T15:24:40.390Z,102109.00
2018-11-13T15:27:08.437Z,102114.00
2018-11-13T15:29:36.495Z,102120.00
2018-11-13T15:32:04.479Z,102124.00
2018-11-13T15:34:32.628Z,102132.00
2018-11-13T15:37:00.616Z,102137.00
2018-11-13T15:39:28.586Z,102134.00
2018-11-13T15:41:56.540Z,102144.00
2018-11-13T15:44:24.559Z,102140.00
2018-11-13T15:46:52.459Z,102144.00
2018-11-13T15:49:20.488Z,102149.00
2018-11-13T15:51:48.549Z,102148.00
2018-11-13T15:54:16.500Z,102147.00
2018-11-13T15:56:44.467Z,102151.00
2018-11-13T15:59:12.621Z,102154.00
2018-11-13T16:01:40.458Z,102164.00
2018-11-13T16:04:08.425Z,102163.00
2018-11-13T16:06:36.489Z,102161.00
2018-11-13T16:09:10.262Z,102173.00
2018-11-13T16:11:38.476Z,102172.00
2018-11-13T16:14:06.504Z,102176.00
2018-11-13T16:16:34.475Z,102184.00
2018-11-13T16:19:02.408Z,102191.00
2018-11-13T16:21:30.538Z,102198.00
2018-11-13T16:23:58.500Z,102193.00
2018-11-13T16:26:26.484Z,102195.00
2018-11-13T16:28:54.436Z,102204.00
2018-11-13T16:31:22.524Z,102207.00
2018-11-13T16:33:50.496Z,102209.00
2018-11-13T16:36:18.478Z,102215.00
2018-11-13T16:38:46.473Z,102217.00
2018-11-13T16:41:14.593Z,102219.00
2018-11-13T16:43:42.456Z,102223.00
2018-11-13T16:46:10.403Z,102218.00
2018-11-13T16:48:38.752Z,102222.00
2018-11-13T16:51:06.684Z,102228.00
2018-11-13T16:53:40.082Z,102230.00
2018-11-13T16:56:08.003Z,102234.00
2018-11-13T16:58:36.081Z,102240.00
2018-11-13T17:01:04.107Z,102245.00
2018-11-13T17:03:32.048Z,102248.00
2018-11-13T17:06:00.038Z,102248.00
2018-11-13T17:08:27.975Z,102245.00
2018-11-13T17:10:55.936Z,102250.00
2018-11-13T17:13:23.879Z,102249.00
2018-11-13T17:15:51.836Z,102247.00
2018-11-13T17:18:19.823Z,102239.00
2018-11-13T17:20:47.776Z,102243.00
2018-11-13T17:23:15.709Z,102250.00
2018-11-13T17:25:43.679Z,102249.00
2018-11-13T17:28:11.617Z,102252.00
2018-11-13T17:30:39.559Z,102248.00
2018-11-13T17:33:08.799Z,102251.00
2018-11-13T17:35:36.989Z,102251.00
2018-11-13T17:38:05.191Z,102255.00
2018-11-13T17:40:34.389Z,102258.00
2018-11-13T17:43:03.582Z,102258.00
2018-11-13T17:45:32.920Z,102262.00
2018-11-13T17:48:00.995Z,102268.00
2018-11-13T17:50:31.435Z,102262.00
2018-11-13T17:52:59.427Z,102271.00
2018-11-13T17:55:27.404Z,102269.00
2018-11-13T17:57:56.904Z,102277.00
2018-11-13T18:00:28.112Z,102278.00
2018-11-13T18:02:56.080Z,102280.00
2018-11-13T18:05:25.001Z,102280.00
2018-11-13T18:07:53.580Z,102284.00
2018-11-13T18:10:21.779Z,102282.00
2018-11-13T18:12:49.750Z,102288.00
2018-11-13T18:15:19.600Z,102287.00
2018-11-13T18:17:47.845Z,102286.00
2018-11-13T18:20:19.063Z,102289.00
2018-11-13T18:22:47.280Z,102294.00
2018-11-13T18:25:15.219Z,102297.00
2018-11-13T18:27:51.038Z,102299.00
2018-11-13T18:30:23.951Z,102301.00
2018-11-13T18:32:52.361Z,102299.00
2018-11-13T18:35:22.447Z,102296.00
2018-11-13T18:37:51.044Z,102305.00
2018-11-13T18:40:19.838Z,102301.00
2018-11-13T18:42:48.930Z,102300.00
2018-11-13T18:45:19.379Z,102306.00
2018-11-13T18:47:47.404Z,102306.00
2018-11-13T18:50:17.051Z,102312.00
2018-11-13T18:52:44.969Z,102314.00
2018-11-13T18:55:13.478Z,102316.00
2018-11-13T18:57:41.923Z,102320.00
2018-11-13T19:00:17.135Z,102319.00
2018-11-13T19:02:47.063Z,102325.00
2018-11-13T19:05:15.579Z,102327.00
2018-11-13T19:07:43.919Z,102333.00
2018-11-13T19:10:17.716Z,102333.00
2018-11-13T19:12:46.257Z,102339.00
2018-11-13T19:15:15.315Z,102341.00
2018-11-13T19:17:43.593Z,102340.00
2018-11-13T19:20:15.060Z,102345.00
2018-11-13T19:22:43.060Z,102348.00
2018-11-13T19:25:14.088Z,102352.00
2018-11-13T19:27:42.732Z,102355.00
2018-11-13T19:30:11.764Z,102360.00
2018-11-13T19:32:39.613Z,102357.00
2018-11-13T19:35:07.653Z,102356.00
2018-11-13T19:37:36.062Z,102360.00
2018-11-13T19:40:04.150Z,102363.00
2018-11-13T19:42:32.103Z,102361.00
2018-11-13T19:45:00.151Z,102364.00
2018-11-13T19:47:28.148Z,102366.00
2018-11-13T19:49:56.172Z,102367.00
2018-11-13T19:52:24.108Z,102370.00
2018-11-13T19:54:52.084Z,102374.00
2018-11-13T19:57:20.068Z,102369.00
2018-11-13T19:59:48.028Z,102369.00
2018-11-13T20:02:15.983Z,102374.00
2018-11-13T20:04:44.047Z,102376.00
2018-11-13T20:07:11.944Z,102377.00
2018-11-13T20:09:39.891Z,102381.00
2018-11-13T20:12:07.875Z,102384.00
2018-11-13T20:14:35.835Z,102389.00
2018-11-13T20:17:03.767Z,102389.00
2018-11-13T20:19:31.755Z,102392.00
2018-11-13T20:21:59.706Z,102396.00
2018-11-13T20:24:27.636Z,102403.00
2018-11-13T20:26:55.560Z,102396.00
2018-11-13T20:29:23.673Z,102392.00
2018-11-13T20:31:51.615Z,102396.00
2018-11-13T20:34:19.549Z,102397.00
2018-11-13T20:36:47.495Z,102396.00
2018-11-13T20:39:15.419Z,102404.00
2018-11-13T20:41:43.373Z,102404.00
2018-11-13T20:44:11.306Z,102404.00
2018-11-13T20:46:39.260Z,102405.00
2018-11-13T20:49:07.184Z,102400.00
2018-11-13T20:51:35.188Z,102398.00
2018-11-13T20:54:03.060Z,102399.00
2018-11-13T20:56:31.003Z,102405.00
2018-11-13T20:58:58.951Z,102408.00
2018-11-13T21:01:26.890Z,102410.00
2018-11-13T21:03:55.489Z,102410.00
2018-11-13T21:06:23.424Z,102410.00
2018-11-13T21:11:32.385Z,102415.00
2018-11-13T21:14:00.341Z,102415.00
2018-11-13T21:16:28.361Z,102417.00
2018-11-13T21:18:56.323Z,102417.00
2018-11-13T21:21:24.289Z,102417.00
2018-11-13T21:23:52.297Z,102421.00
2018-11-13T21:26:20.268Z,102427.00
2018-11-13T21:28:48.466Z,102423.00
2018-11-13T21:31:16.551Z,102420.00
2018-11-13T21:33:44.732Z,102422.00
2018-11-13T21:36:12.684Z,102424.00
2018-11-13T21:38:40.671Z,102421.00
2018-11-13T21:41:08.602Z,102423.00
2018-11-13T21:43:36.636Z,102424.00
2018-11-13T21:46:04.632Z,102426.00
2018-11-13T21:48:32.765Z,102430.00
2018-11-13T21:51:00.754Z,102433.00
2018-11-13T21:53:28.748Z,102431.00
2018-11-13T21:55:56.769Z,102431.00
2018-11-13T21:58:24.813Z,102436.00
2018-11-13T22:00:52.821Z,102433.00
2018-11-13T22:03:20.779Z,102432.00
2018-11-13T22:05:48.725Z,102426.00
2018-11-13T22:08:18.530Z,102432.00
2018-11-13T22:10:46.480Z,102431.00
2018-11-13T22:13:14.453Z,102427.00
2018-11-13T22:15:42.411Z,102433.00
2018-11-13T22:18:10.335Z,102430.00
2018-11-13T22:20:43.618Z,102434.00
2018-11-13T22:23:06.447Z,102434.00
2018-11-13T22:25:34.428Z,102435.00
2018-11-13T22:28:02.664Z,102438.00
2018-11-13T22:30:32.595Z,102439.00
2018-11-13T22:33:00.628Z,102446.00
2018-11-13T22:35:28.622Z,102448.00
2018-11-13T22:37:56.682Z,102446.00
2018-11-13T22:40:26.220Z,102450.00
2018-11-13T22:42:54.363Z,102450.00
2018-11-13T22:45:24.772Z,102453.00
2018-11-13T22:47:52.913Z,102453.00
2018-11-13T22:50:22.356Z,102451.00
2018-11-13T22:52:50.647Z,102449.00
2018-11-13T22:55:20.588Z,102450.00
2018-11-13T22:57:49.501Z,102451.00
2018-11-13T23:00:18.645Z,102455.00
2018-11-13T23:02:47.709Z,102458.00
2018-11-13T23:05:15.603Z,102455.00
2018-11-13T23:07:43.544Z,102449.00
2018-11-13T23:10:12.751Z,102449.00
2018-11-13T23:12:41.443Z,102448.00
2018-11-13T23:15:12.024Z,102452.00
2018-11-13T23:17:40.559Z,102455.00
2018-11-13T23:20:12.025Z,102449.00
2018-11-13T23:22:40.185Z,102454.00
2018-11-13T23:25:09.873Z,102447.00
2018-11-13T23:27:37.868Z,102445.00
2018-11-13T23:30:09.377Z,102446.00
2018-11-13T23:32:37.374Z,102451.00
2018-11-13T23:35:05.924Z,102453.00
2018-11-13T23:37:33.624Z,102458.00
2018-11-13T23:40:01.535Z,102467.00
2018-11-13T23:42:29.487Z,102470.00
2018-11-13T23:44:57.441Z,102466.00
2018-11-13T23:47:25.404Z,102472.00
2018-11-13T23:49:53.368Z,102478.00
2018-11-13T23:52:21.312Z,102484.00
2018-11-13T23:54:49.315Z,102479.00
2018-11-13T23:57:17.243Z,102479.00
2018-11-13T23:59:45.235Z,102483.00
